sensor_id;sensor_type;location;lat;lon;timestamp;pressure;altitude;pressure_sealevel;temperature;humidity
75555;BME280;66087;53.126;17.960;2023-05-20T00:00:59;102056.68;;;12.01;72.58
75555;BME280;66087;53.126;17.960;2023-05-20T00:03:27;102060.66;;;12.01;72.58
75555;BME280;66087;53.126;17.960;2023-05-20T00:05:55;102061.13;;;12.01;72.54
75555;BME280;66087;53.126;17.960;2023-05-20T00:08:22;102058.25;;;12.01;72.55
75555;BME280;66087;53.126;17.960;2023-05-20T00:10:52;102055.91;;;12.01;72.60
75555;BME280;66087;53.126;17.960;2023-05-20T00:13:19;102055.30;;;12.02;72.63
75555;BME280;66087;53.126;17.960;2023-05-20T00:15:45;102052.64;;;12.01;72.82
75555;BME280;66087;53.126;17.960;2023-05-20T00:18:12;102051.31;;;12.01;72.77
75555;BME280;66087;53.126;17.960;2023-05-20T00:20:39;102051.08;;;12.01;72.74
75555;BME280;66087;53.126;17.960;2023-05-20T00:23:06;102049.52;;;12.00;72.96
75555;BME280;66087;53.126;17.960;2023-05-20T00:25:35;102050.99;;;12.00;72.88
75555;BME280;66087;53.126;17.960;2023-05-20T00:28:01;102050.21;;;12.00;72.89
75555;BME280;66087;53.126;17.960;2023-05-20T00:30:33;102049.05;;;12.03;72.88
75555;BME280;66087;53.126;17.960;2023-05-20T00:33:01;102046.02;;;12.03;73.12
75555;BME280;66087;53.126;17.960;2023-05-20T00:35:28;102036.52;;;12.01;73.17
75555;BME280;66087;53.126;17.960;2023-05-20T00:37:54;102039.16;;;12.01;73.28
75555;BME280;66087;53.126;17.960;2023-05-20T00:40:23;102039.39;;;11.99;73.04
75555;BME280;66087;53.126;17.960;2023-05-20T00:42:51;102040.54;;;11.97;73.21
75555;BME280;66087;53.126;17.960;2023-05-20T00:45:17;102039.69;;;11.96;73.28
75555;BME280;66087;53.126;17.960;2023-05-20T00:47:44;102037.97;;;11.96;73.54
75555;BME280;66087;53.126;17.960;2023-05-20T00:50:11;102038.45;;;11.95;73.33
75555;BME280;66087;53.126;17.960;2023-05-20T00:52:39;102034.54;;;11.94;73.55
75555;BME280;66087;53.126;17.960;2023-05-20T00:55:10;102035.40;;;11.93;73.43
75555;BME280;66087;53.126;17.960;2023-05-20T00:57:37;102034.46;;;11.95;73.55
75555;BME280;66087;53.126;17.960;2023-05-20T01:00:04;102032.36;;;11.96;73.60
75555;BME280;66087;53.126;17.960;2023-05-20T01:02:33;102030.95;;;11.94;73.71
75555;BME280;66087;53.126;17.960;2023-05-20T01:05:00;102031.17;;;11.91;74.02
75555;BME280;66087;53.126;17.960;2023-05-20T01:07:27;102029.39;;;11.90;73.94
75555;BME280;66087;53.126;17.960;2023-05-20T01:09:54;102027.82;;;11.89;73.85
75555;BME280;66087;53.126;17.960;2023-05-20T01:12:26;102028.45;;;11.90;73.96
75555;BME280;66087;53.126;17.960;2023-05-20T01:15:03;102025.11;;;11.91;73.86
75555;BME280;66087;53.126;17.960;2023-05-20T01:17:31;102031.49;;;11.92;74.40
75555;BME280;66087;53.126;17.960;2023-05-20T01:20:03;102024.95;;;11.89;74.33
75555;BME280;66087;53.126;17.960;2023-05-20T01:22:31;102024.92;;;11.86;74.81
75555;BME280;66087;53.126;17.960;2023-05-20T01:24:58;102023.98;;;11.83;74.37
75555;BME280;66087;53.126;17.960;2023-05-20T01:27:26;102026.23;;;11.82;74.15
75555;BME280;66087;53.126;17.960;2023-05-20T01:29:52;102028.11;;;11.82;74.21
75555;BME280;66087;53.126;17.960;2023-05-20T01:32:24;102027.88;;;11.83;74.34
75555;BME280;66087;53.126;17.960;2023-05-20T01:34:52;101996.08;;;11.57;74.33
75555;BME280;66087;53.126;17.960;2023-05-20T01:37:22;102032.46;;;11.80;74.33
75555;BME280;66087;53.126;17.960;2023-05-20T01:39:51;102033.32;;;11.80;74.09
75555;BME280;66087;53.126;17.960;2023-05-20T01:42:19;102025.38;;;11.80;74.04
75555;BME280;66087;53.126;17.960;2023-05-20T01:44:48;102024.05;;;11.80;74.32
75555;BME280;66087;53.126;17.960;2023-05-20T01:47:15;102018.52;;;11.79;74.35
75555;BME280;66087;53.126;17.960;2023-05-20T01:49:41;102019.92;;;11.80;74.14
75555;BME280;66087;53.126;17.960;2023-05-20T01:52:08;102018.59;;;11.81;74.36
75555;BME280;66087;53.126;17.960;2023-05-20T01:54:35;102018.83;;;11.80;74.20
75555;BME280;66087;53.126;17.960;2023-05-20T01:57:02;102021.71;;;11.79;74.34
75555;BME280;66087;53.126;17.960;2023-05-20T01:59:30;102019.70;;;11.80;74.36
75555;BME280;66087;53.126;17.960;2023-05-20T02:01:57;102019.61;;;11.80;74.10
75555;BME280;66087;53.126;17.960;2023-05-20T02:04:23;102015.48;;;11.81;74.01
75555;BME280;66087;53.126;17.960;2023-05-20T02:06:53;102017.43;;;11.81;74.28
75555;BME280;66087;53.126;17.960;2023-05-20T02:09:23;102018.91;;;11.81;74.10
75555;BME280;66087;53.126;17.960;2023-05-20T02:11:52;102015.40;;;11.80;74.32
75555;BME280;66087;53.126;17.960;2023-05-20T02:14:19;102016.64;;;11.77;74.74
75555;BME280;66087;53.126;17.960;2023-05-20T02:16:45;102015.91;;;11.73;74.50
75555;BME280;66087;53.126;17.960;2023-05-20T02:19:13;102014.48;;;11.70;74.42
75555;BME280;66087;53.126;17.960;2023-05-20T02:21:41;102014.60;;;11.73;74.24
75555;BME280;66087;53.126;17.960;2023-05-20T02:24:12;102014.68;;;11.74;74.53
75555;BME280;66087;53.126;17.960;2023-05-20T02:26:39;102015.38;;;11.72;74.49
75555;BME280;66087;53.126;17.960;2023-05-20T02:29:08;102016.85;;;11.72;74.29
75555;BME280;66087;53.126;17.960;2023-05-20T02:31:35;102014.44;;;11.72;74.21
75555;BME280;66087;53.126;17.960;2023-05-20T02:34:02;102011.76;;;11.70;74.17
75555;BME280;66087;53.126;17.960;2023-05-20T02:36:30;102009.17;;;11.69;74.38
75555;BME280;66087;53.126;17.960;2023-05-20T02:38:58;101949.30;;;11.30;74.46
75555;BME280;66087;53.126;17.960;2023-05-20T02:41:27;102007.54;;;11.67;74.31
75555;BME280;66087;53.126;17.960;2023-05-20T02:43:54;102005.32;;;11.71;74.30
75555;BME280;66087;53.126;17.960;2023-05-20T02:46:21;102005.56;;;11.73;74.43
75555;BME280;66087;53.126;17.960;2023-05-20T02:48:48;102009.28;;;11.71;74.57
75555;BME280;66087;53.126;17.960;2023-05-20T02:51:15;102007.95;;;11.70;74.27
75555;BME280;66087;53.126;17.960;2023-05-20T02:53:42;102010.71;;;11.74;74.21
75555;BME280;66087;53.126;17.960;2023-05-20T02:56:09;102011.72;;;11.74;74.65
75555;BME280;66087;53.126;17.960;2023-05-20T02:58:36;102013.17;;;11.71;74.35
75555;BME280;66087;53.126;17.960;2023-05-20T03:01:05;102012.22;;;11.70;74.38
75555;BME280;66087;53.126;17.960;2023-05-20T03:03:32;102008.27;;;11.70;74.58
75555;BME280;66087;53.126;17.960;2023-05-20T03:06:00;102010.35;;;11.70;74.40
75555;BME280;66087;53.126;17.960;2023-05-20T03:08:29;102008.13;;;11.72;74.37
75555;BME280;66087;53.126;17.960;2023-05-20T03:10:56;102012.59;;;11.73;74.38
75555;BME280;66087;53.126;17.960;2023-05-20T03:13:23;102013.83;;;11.73;74.31
75555;BME280;66087;53.126;17.960;2023-05-20T03:15:50;102012.65;;;11.73;74.47
75555;BME280;66087;53.126;17.960;2023-05-20T03:18:18;102012.90;;;11.73;74.35
75555;BME280;66087;53.126;17.960;2023-05-20T03:20:46;102014.76;;;11.73;74.33
75555;BME280;66087;53.126;17.960;2023-05-20T03:23:14;102021.06;;;11.73;74.24
75555;BME280;66087;53.126;17.960;2023-05-20T03:25:41;102020.67;;;11.77;74.10
75555;BME280;66087;53.126;17.960;2023-05-20T03:28:08;102018.98;;;11.79;74.04
75555;BME280;66087;53.126;17.960;2023-05-20T03:30:36;101982.13;;;11.55;74.32
75555;BME280;66087;53.126;17.960;2023-05-20T03:33:04;101978.25;;;11.55;74.01
75555;BME280;66087;53.126;17.960;2023-05-20T03:35:31;102021.50;;;11.85;74.11
75555;BME280;66087;53.126;17.960;2023-05-20T03:37:59;102024.53;;;11.86;73.96
75555;BME280;66087;53.126;17.960;2023-05-20T03:40:27;102023.52;;;11.84;74.06
75555;BME280;66087;53.126;17.960;2023-05-20T03:42:55;102029.90;;;11.85;73.98
75555;BME280;66087;53.126;17.960;2023-05-20T03:45:22;102026.95;;;11.86;73.86
75555;BME280;66087;53.126;17.960;2023-05-20T03:47:59;102026.88;;;11.86;73.95
75555;BME280;66087;53.126;17.960;2023-05-20T03:50:26;102031.54;;;11.85;74.06
75555;BME280;66087;53.126;17.960;2023-05-20T03:52:53;102030.91;;;11.84;73.75
75555;BME280;66087;53.126;17.960;2023-05-20T03:55:22;102031.14;;;11.84;73.77
75555;BME280;66087;53.126;17.960;2023-05-20T03:57:51;102029.91;;;11.85;73.62
75555;BME280;66087;53.126;17.960;2023-05-20T04:00:17;102031.64;;;11.89;73.63
75555;BME280;66087;53.126;17.960;2023-05-20T04:02:44;102029.86;;;11.92;73.77
75555;BME280;66087;53.126;17.960;2023-05-20T04:05:14;102033.69;;;11.91;73.40
75555;BME280;66087;53.126;17.960;2023-05-20T04:07:41;102036.40;;;11.93;73.48
75555;BME280;66087;53.126;17.960;2023-05-20T04:10:08;102040.92;;;11.96;73.29
75555;BME280;66087;53.126;17.960;2023-05-20T04:12:36;102042.65;;;11.99;73.32
75555;BME280;66087;53.126;17.960;2023-05-20T04:15:04;102036.59;;;12.02;73.15
75555;BME280;66087;53.126;17.960;2023-05-20T04:17:40;102041.04;;;12.06;73.05
75555;BME280;66087;53.126;17.960;2023-05-20T04:20:08;102043.39;;;12.07;73.23
75555;BME280;66087;53.126;17.960;2023-05-20T04:22:36;102042.61;;;12.07;73.18
75555;BME280;66087;53.126;17.960;2023-05-20T04:25:05;102028.86;;;11.99;73.13
75555;BME280;66087;53.126;17.960;2023-05-20T04:27:33;102038.73;;;12.14;73.00
75555;BME280;66087;53.126;17.960;2023-05-20T04:30:00;102037.73;;;12.18;72.86
75555;BME280;66087;53.126;17.960;2023-05-20T04:32:29;102040.24;;;12.24;72.83
75555;BME280;66087;53.126;17.960;2023-05-20T04:34:56;102041.83;;;12.28;72.73
75555;BME280;66087;53.126;17.960;2023-05-20T04:37:24;102040.42;;;12.33;72.61
75555;BME280;66087;53.126;17.960;2023-05-20T04:39:51;102036.77;;;12.38;72.49
75555;BME280;66087;53.126;17.960;2023-05-20T04:42:19;102036.23;;;12.42;72.37
75555;BME280;66087;53.126;17.960;2023-05-20T04:44:47;102029.30;;;12.47;72.21
75555;BME280;66087;53.126;17.960;2023-05-20T04:47:14;102030.33;;;12.50;72.22
75555;BME280;66087;53.126;17.960;2023-05-20T04:49:41;102031.18;;;12.53;72.02
75555;BME280;66087;53.126;17.960;2023-05-20T04:52:08;102034.61;;;12.56;72.00
75555;BME280;66087;53.126;17.960;2023-05-20T04:54:36;102035.63;;;12.62;71.91
75555;BME280;66087;53.126;17.960;2023-05-20T04:57:05;102040.02;;;12.68;71.80
75555;BME280;66087;53.126;17.960;2023-05-20T04:59:34;102040.73;;;12.73;71.70
75555;BME280;66087;53.126;17.960;2023-05-20T05:02:01;101994.78;;;12.45;71.48
75555;BME280;66087;53.126;17.960;2023-05-20T05:04:28;102039.95;;;12.82;71.25
75555;BME280;66087;53.126;17.960;2023-05-20T05:06:54;102038.93;;;12.83;71.21
75555;BME280;66087;53.126;17.960;2023-05-20T05:09:21;102040.65;;;12.85;71.12
75555;BME280;66087;53.126;17.960;2023-05-20T05:11:52;102036.27;;;12.91;71.02
75555;BME280;66087;53.126;17.960;2023-05-20T05:14:19;102037.52;;;12.99;70.93
75555;BME280;66087;53.126;17.960;2023-05-20T05:16:46;102009.29;;;12.89;70.87
75555;BME280;66087;53.126;17.960;2023-05-20T05:19:15;102037.69;;;13.19;70.69
75555;BME280;66087;53.126;17.960;2023-05-20T05:21:42;102039.31;;;13.30;70.54
75555;BME280;66087;53.126;17.960;2023-05-20T05:24:09;102043.67;;;13.40;70.26
75555;BME280;66087;53.126;17.960;2023-05-20T05:26:36;102040.98;;;13.48;70.18
75555;BME280;66087;53.126;17.960;2023-05-20T05:29:03;102043.40;;;13.56;69.83
75555;BME280;66087;53.126;17.960;2023-05-20T05:31:32;102040.63;;;13.63;69.56
75555;BME280;66087;53.126;17.960;2023-05-20T05:34:02;102039.23;;;13.65;69.49
75555;BME280;66087;53.126;17.960;2023-05-20T05:36:32;102038.42;;;13.71;69.54
75555;BME280;66087;53.126;17.960;2023-05-20T05:38:59;102042.92;;;13.80;69.45
75555;BME280;66087;53.126;17.960;2023-05-20T05:41:26;102038.91;;;13.88;69.19
75555;BME280;66087;53.126;17.960;2023-05-20T05:43:55;102040.13;;;13.96;69.09
75555;BME280;66087;53.126;17.960;2023-05-20T05:46:22;102035.73;;;13.98;68.72
75555;BME280;66087;53.126;17.960;2023-05-20T05:48:49;102035.19;;;14.01;68.58
75555;BME280;66087;53.126;17.960;2023-05-20T05:51:18;102033.75;;;14.06;68.57
75555;BME280;66087;53.126;17.960;2023-05-20T05:54:06;102036.14;;;14.12;68.33
75555;BME280;66087;53.126;17.960;2023-05-20T05:56:33;102036.80;;;14.21;68.22
75555;BME280;66087;53.126;17.960;2023-05-20T05:59:23;102035.19;;;14.28;67.35
75555;BME280;66087;53.126;17.960;2023-05-20T06:01:49;102034.30;;;14.33;67.72
75555;BME280;66087;53.126;17.960;2023-05-20T06:04:16;102033.89;;;14.42;67.15
75555;BME280;66087;53.126;17.960;2023-05-20T06:06:43;102038.46;;;14.46;66.89
75555;BME280;66087;53.126;17.960;2023-05-20T06:09:10;102004.98;;;14.28;67.23
75555;BME280;66087;53.126;17.960;2023-05-20T06:11:38;102044.19;;;14.58;66.84
75555;BME280;66087;53.126;17.960;2023-05-20T06:14:10;102047.25;;;14.66;66.69
75555;BME280;66087;53.126;17.960;2023-05-20T06:16:37;102048.77;;;14.74;66.24
75555;BME280;66087;53.126;17.960;2023-05-20T06:19:05;102050.72;;;14.83;66.15
75555;BME280;66087;53.126;17.960;2023-05-20T06:21:34;102046.50;;;14.93;66.08
75555;BME280;66087;53.126;17.960;2023-05-20T06:24:02;102046.26;;;15.03;65.68
75555;BME280;66087;53.126;17.960;2023-05-20T06:26:30;102047.29;;;15.10;65.56
75555;BME280;66087;53.126;17.960;2023-05-20T06:28:58;102047.44;;;15.19;65.44
75555;BME280;66087;53.126;17.960;2023-05-20T06:31:26;102049.33;;;15.26;65.17
75555;BME280;66087;53.126;17.960;2023-05-20T06:33:53;102049.13;;;15.30;65.16
75555;BME280;66087;53.126;17.960;2023-05-20T06:36:20;102051.31;;;15.31;64.05
75555;BME280;66087;53.126;17.960;2023-05-20T06:38:47;102053.17;;;15.25;63.60
75555;BME280;66087;53.126;17.960;2023-05-20T06:41:18;102051.23;;;15.24;64.22
75555;BME280;66087;53.126;17.960;2023-05-20T06:43:45;102050.88;;;15.28;64.11
75555;BME280;66087;53.126;17.960;2023-05-20T06:46:22;102052.40;;;15.40;64.28
75555;BME280;66087;53.126;17.960;2023-05-20T06:48:55;102051.98;;;15.51;63.84
75555;BME280;66087;53.126;17.960;2023-05-20T06:51:22;102053.73;;;15.64;63.46
75555;BME280;66087;53.126;17.960;2023-05-20T06:53:51;102050.70;;;15.75;62.90
75555;BME280;66087;53.126;17.960;2023-05-20T06:56:18;102055.48;;;15.84;62.61
75555;BME280;66087;53.126;17.960;2023-05-20T06:58:45;102056.47;;;15.91;62.34
75555;BME280;66087;53.126;17.960;2023-05-20T07:01:13;102052.02;;;15.96;61.68
75555;BME280;66087;53.126;17.960;2023-05-20T07:03:40;102048.23;;;15.98;61.19
75555;BME280;66087;53.126;17.960;2023-05-20T07:06:09;102042.95;;;16.06;61.58
75555;BME280;66087;53.126;17.960;2023-05-20T07:08:37;102039.83;;;16.23;61.86
75555;BME280;66087;53.126;17.960;2023-05-20T07:11:04;102038.50;;;16.38;60.84
75555;BME280;66087;53.126;17.960;2023-05-20T07:13:33;102036.92;;;16.50;60.64
75555;BME280;66087;53.126;17.960;2023-05-20T07:16:00;102038.10;;;16.63;60.58
75555;BME280;66087;53.126;17.960;2023-05-20T07:18:28;102037.08;;;16.77;60.70
75555;BME280;66087;53.126;17.960;2023-05-20T07:20:56;102036.46;;;16.91;60.15
75555;BME280;66087;53.126;17.960;2023-05-20T07:23:38;102034.77;;;17.03;60.22
75555;BME280;66087;53.126;17.960;2023-05-20T07:26:07;102031.02;;;17.14;59.44
75555;BME280;66087;53.126;17.960;2023-05-20T07:28:37;102025.65;;;17.25;59.53
75555;BME280;66087;53.126;17.960;2023-05-20T07:31:07;102030.30;;;17.42;59.26
75555;BME280;66087;53.126;17.960;2023-05-20T07:33:41;102030.48;;;17.61;59.51
75555;BME280;66087;53.126;17.960;2023-05-20T07:36:08;102000.10;;;17.63;58.90
75555;BME280;66087;53.126;17.960;2023-05-20T07:38:56;102023.11;;;17.88;57.71
75555;BME280;66087;53.126;17.960;2023-05-20T07:41:24;102022.71;;;17.95;58.11
75555;BME280;66087;53.126;17.960;2023-05-20T07:43:54;102019.38;;;18.03;57.75
75555;BME280;66087;53.126;17.960;2023-05-20T07:46:21;102018.24;;;18.19;57.72
75555;BME280;66087;53.126;17.960;2023-05-20T07:48:50;102016.27;;;18.40;57.57
75555;BME280;66087;53.126;17.960;2023-05-20T07:51:17;102019.86;;;18.62;57.02
75555;BME280;66087;53.126;17.960;2023-05-20T07:53:45;102021.77;;;18.75;55.92
75555;BME280;66087;53.126;17.960;2023-05-20T07:56:12;102019.28;;;18.76;55.88
75555;BME280;66087;53.126;17.960;2023-05-20T07:58:40;102017.27;;;18.78;55.38
75555;BME280;66087;53.126;17.960;2023-05-20T08:01:08;102012.89;;;18.86;55.27
75555;BME280;66087;53.126;17.960;2023-05-20T08:03:35;102018.52;;;18.97;55.29
75555;BME280;66087;53.126;17.960;2023-05-20T08:06:09;102014.56;;;19.13;55.47
75555;BME280;66087;53.126;17.960;2023-05-20T08:08:37;102014.71;;;19.34;55.18
75555;BME280;66087;53.126;17.960;2023-05-20T08:11:11;102014.77;;;19.55;54.61
75555;BME280;66087;53.126;17.960;2023-05-20T08:13:39;102014.73;;;19.65;54.30
75555;BME280;66087;53.126;17.960;2023-05-20T08:16:08;102012.75;;;19.71;53.36
75555;BME280;66087;53.126;17.960;2023-05-20T08:18:35;102007.52;;;19.72;53.09
75555;BME280;66087;53.126;17.960;2023-05-20T08:21:27;102005.77;;;19.75;53.65
75555;BME280;66087;53.126;17.960;2023-05-20T08:23:54;102002.39;;;19.91;52.87
75555;BME280;66087;53.126;17.960;2023-05-20T08:26:21;102004.34;;;20.01;52.69
75555;BME280;66087;53.126;17.960;2023-05-20T08:28:51;102006.11;;;20.03;52.12
75555;BME280;66087;53.126;17.960;2023-05-20T08:31:18;102005.83;;;20.15;52.93
75555;BME280;66087;53.126;17.960;2023-05-20T08:33:45;102005.95;;;20.37;52.40
75555;BME280;66087;53.126;17.960;2023-05-20T08:36:12;102005.53;;;20.57;52.31
75555;BME280;66087;53.126;17.960;2023-05-20T08:38:39;102005.42;;;20.70;51.94
75555;BME280;66087;53.126;17.960;2023-05-20T08:41:10;102002.16;;;20.89;51.47
75555;BME280;66087;53.126;17.960;2023-05-20T08:43:38;102000.05;;;21.05;51.23
75555;BME280;66087;53.126;17.960;2023-05-20T08:46:05;101994.27;;;21.15;50.01
75555;BME280;66087;53.126;17.960;2023-05-20T08:48:34;101987.33;;;21.19;50.45
75555;BME280;66087;53.126;17.960;2023-05-20T08:51:02;101989.02;;;21.30;50.53
75555;BME280;66087;53.126;17.960;2023-05-20T08:53:30;101986.36;;;21.42;50.84
75555;BME280;66087;53.126;17.960;2023-05-20T08:55:59;101981.11;;;21.53;50.29
75555;BME280;66087;53.126;17.960;2023-05-20T08:58:29;101980.74;;;21.63;49.72
75555;BME280;66087;53.126;17.960;2023-05-20T09:00:56;101975.01;;;21.70;49.60
75555;BME280;66087;53.126;17.960;2023-05-20T09:03:24;101974.07;;;21.68;48.32
75555;BME280;66087;53.126;17.960;2023-05-20T09:06:01;101971.61;;;21.64;48.99
75555;BME280;66087;53.126;17.960;2023-05-20T09:08:29;101971.70;;;21.72;48.46
75555;BME280;66087;53.126;17.960;2023-05-20T09:11:19;101970.49;;;21.79;48.52
75555;BME280;66087;53.126;17.960;2023-05-20T09:13:54;101967.87;;;21.92;48.79
75555;BME280;66087;53.126;17.960;2023-05-20T09:16:22;101967.52;;;21.93;48.20
75555;BME280;66087;53.126;17.960;2023-05-20T09:19:11;101964.98;;;21.95;48.83
75555;BME280;66087;53.126;17.960;2023-05-20T09:21:40;101962.98;;;21.85;48.40
75555;BME280;66087;53.126;17.960;2023-05-20T09:24:07;101964.58;;;21.64;48.85
75555;BME280;66087;53.126;17.960;2023-05-20T09:26:34;101964.58;;;21.45;48.75
75555;BME280;66087;53.126;17.960;2023-05-20T09:29:21;101957.20;;;21.06;48.71
75555;BME280;66087;53.126;17.960;2023-05-20T09:31:49;101951.48;;;20.79;49.73
75555;BME280;66087;53.126;17.960;2023-05-20T09:34:18;101953.23;;;20.65;49.78
75555;BME280;66087;53.126;17.960;2023-05-20T09:36:50;101951.34;;;20.44;49.66
75555;BME280;66087;53.126;17.960;2023-05-20T09:39:23;101942.08;;;20.15;49.66
75555;BME280;66087;53.126;17.960;2023-05-20T09:41:56;101943.23;;;19.93;50.58
75555;BME280;66087;53.126;17.960;2023-05-20T09:44:28;101944.27;;;19.83;50.42
75555;BME280;66087;53.126;17.960;2023-05-20T09:47:00;101936.18;;;19.81;50.57
75555;BME280;66087;53.126;17.960;2023-05-20T09:49:28;101937.48;;;19.88;50.60
75555;BME280;66087;53.126;17.960;2023-05-20T09:52:02;101939.82;;;19.99;50.73
75555;BME280;66087;53.126;17.960;2023-05-20T09:54:30;101936.83;;;20.09;50.61
75555;BME280;66087;53.126;17.960;2023-05-20T09:56:58;101938.73;;;20.06;50.01
75555;BME280;66087;53.126;17.960;2023-05-20T09:59:26;101938.92;;;19.95;50.17
75555;BME280;66087;53.126;17.960;2023-05-20T10:01:53;101935.85;;;19.99;50.65
75555;BME280;66087;53.126;17.960;2023-05-20T10:04:20;101931.60;;;20.21;50.30
75555;BME280;66087;53.126;17.960;2023-05-20T10:10:13;101935.96;;;21.08;49.06
75555;BME280;66087;53.126;17.960;2023-05-20T10:13:01;101934.37;;;21.59;48.69
75555;BME280;66087;53.126;17.960;2023-05-20T10:18:44;101932.42;;;22.61;47.54
75555;BME280;66087;53.126;17.960;2023-05-20T10:21:19;101930.60;;;22.79;46.83
75555;BME280;66087;53.126;17.960;2023-05-20T10:24:04;101923.30;;;22.84;46.88
75555;BME280;66087;53.126;17.960;2023-05-20T10:26:40;101921.41;;;23.05;46.79
75555;BME280;66087;53.126;17.960;2023-05-20T10:29:16;101920.92;;;23.38;46.27
75555;BME280;66087;53.126;17.960;2023-05-20T10:31:47;101894.23;;;23.42;45.40
75555;BME280;66087;53.126;17.960;2023-05-20T10:34:19;101918.91;;;23.69;45.32
75555;BME280;66087;53.126;17.960;2023-05-20T10:36:57;101913.09;;;23.85;45.33
75555;BME280;66087;53.126;17.960;2023-05-20T10:39:27;101909.74;;;23.94;44.55
75555;BME280;66087;53.126;17.960;2023-05-20T10:42:07;101906.30;;;23.66;43.97
75555;BME280;66087;53.126;17.960;2023-05-20T10:44:41;101906.14;;;23.47;44.25
75555;BME280;66087;53.126;17.960;2023-05-20T10:47:09;101903.58;;;23.47;43.66
75555;BME280;66087;53.126;17.960;2023-05-20T10:49:43;101906.14;;;23.42;44.21
75555;BME280;66087;53.126;17.960;2023-05-20T10:52:13;101892.75;;;23.26;43.96
75555;BME280;66087;53.126;17.960;2023-05-20T10:54:47;101890.25;;;23.28;44.40
75555;BME280;66087;53.126;17.960;2023-05-20T10:57:25;101911.20;;;23.59;43.42
75555;BME280;66087;53.126;17.960;2023-05-20T10:59:52;101907.32;;;23.64;43.22
75555;BME280;66087;53.126;17.960;2023-05-20T11:02:21;101903.36;;;23.54;43.58
75555;BME280;66087;53.126;17.960;2023-05-20T11:04:54;101897.34;;;23.38;43.84
75555;BME280;66087;53.126;17.960;2023-05-20T11:07:26;101897.58;;;23.36;43.82
75555;BME280;66087;53.126;17.960;2023-05-20T11:09:57;101890.30;;;23.32;43.72
75555;BME280;66087;53.126;17.960;2023-05-20T11:12:26;101889.48;;;23.42;43.82
75555;BME280;66087;53.126;17.960;2023-05-20T11:14:53;101885.58;;;23.61;43.70
75555;BME280;66087;53.126;17.960;2023-05-20T11:17:20;101882.95;;;23.69;43.80
75555;BME280;66087;53.126;17.960;2023-05-20T11:19:47;101885.55;;;23.81;43.64
75555;BME280;66087;53.126;17.960;2023-05-20T11:22:18;101887.15;;;24.00;43.28
75555;BME280;66087;53.126;17.960;2023-05-20T11:24:46;101885.64;;;24.28;42.67
75555;BME280;66087;53.126;17.960;2023-05-20T11:27:14;101883.73;;;24.63;42.43
75555;BME280;66087;53.126;17.960;2023-05-20T11:29:47;101881.42;;;24.82;40.99
75555;BME280;66087;53.126;17.960;2023-05-20T11:32:22;101878.59;;;24.92;41.17
75555;BME280;66087;53.126;17.960;2023-05-20T11:34:51;101875.49;;;25.06;41.49
75555;BME280;66087;53.126;17.960;2023-05-20T11:37:19;101823.34;;;24.84;40.85
75555;BME280;66087;53.126;17.960;2023-05-20T11:40:10;101871.60;;;25.30;41.01
75555;BME280;66087;53.126;17.960;2023-05-20T11:42:59;101869.65;;;25.56;41.15
75555;BME280;66087;53.126;17.960;2023-05-20T11:45:27;101865.70;;;25.86;40.21
75555;BME280;66087;53.126;17.960;2023-05-20T11:48:06;101866.05;;;26.08;39.35
75555;BME280;66087;53.126;17.960;2023-05-20T11:50:42;101858.83;;;26.10;39.42
75555;BME280;66087;53.126;17.960;2023-05-20T11:53:13;101863.50;;;26.25;39.22
75555;BME280;66087;53.126;17.960;2023-05-20T11:55:49;101867.98;;;26.22;38.96
75555;BME280;66087;53.126;17.960;2023-05-20T11:58:22;101867.08;;;26.19;39.49
75555;BME280;66087;53.126;17.960;2023-05-20T12:00:50;101867.79;;;26.30;39.58
75555;BME280;66087;53.126;17.960;2023-05-20T12:03:18;101858.52;;;26.37;39.45
75555;BME280;66087;53.126;17.960;2023-05-20T12:05:44;101838.73;;;26.36;39.16
75555;BME280;66087;53.126;17.960;2023-05-20T12:08:15;101865.03;;;26.65;39.38
75555;BME280;66087;53.126;17.960;2023-05-20T12:10:43;101863.48;;;26.76;39.22
75555;BME280;66087;53.126;17.960;2023-05-20T12:13:12;101862.91;;;26.80;38.86
75555;BME280;66087;53.126;17.960;2023-05-20T12:15:42;101865.89;;;26.69;38.17
75555;BME280;66087;53.126;17.960;2023-05-20T12:18:09;101868.55;;;26.60;39.09
75555;BME280;66087;53.126;17.960;2023-05-20T12:20:36;101862.22;;;26.62;38.46
75555;BME280;66087;53.126;17.960;2023-05-20T12:23:04;101862.64;;;26.64;38.59
75555;BME280;66087;53.126;17.960;2023-05-20T12:25:33;101862.17;;;26.81;38.67
75555;BME280;66087;53.126;17.960;2023-05-20T12:28:01;101862.17;;;26.89;37.88
75555;BME280;66087;53.126;17.960;2023-05-20T12:30:29;101857.08;;;26.92;38.37
75555;BME280;66087;53.126;17.960;2023-05-20T12:33:01;101851.00;;;27.17;37.94
75555;BME280;66087;53.126;17.960;2023-05-20T12:35:39;101849.88;;;27.48;38.04
75555;BME280;66087;53.126;17.960;2023-05-20T12:38:08;101844.44;;;27.86;37.14
75555;BME280;66087;53.126;17.960;2023-05-20T12:40:38;101842.16;;;27.98;36.65
75555;BME280;66087;53.126;17.960;2023-05-20T12:43:05;101839.92;;;27.99;36.77
75555;BME280;66087;53.126;17.960;2023-05-20T12:45:32;101839.40;;;28.15;36.97
75555;BME280;66087;53.126;17.960;2023-05-20T12:47:59;101841.41;;;28.52;36.49
75555;BME280;66087;53.126;17.960;2023-05-20T12:50:27;101839.42;;;28.66;35.75
75555;BME280;66087;53.126;17.960;2023-05-20T12:52:54;101837.48;;;28.84;35.48
75555;BME280;66087;53.126;17.960;2023-05-20T12:55:22;101837.63;;;28.88;34.35
75555;BME280;66087;53.126;17.960;2023-05-20T12:57:54;101834.43;;;29.01;34.80